Time;durP1;ratioP1;P1;durP2;ratioP2;P2;SDS_P1;SDS_P2;PMS_P1;PMS_P2;Temp;Humidity;BMP_temperature;BMP_pressure;BME280_temperature;BME280_humidity;BME280_pressure;Samples;Min_cycle;Max_cycle;Signal;HPM_P1;HPM_P2
2023/09/27 00:01:37;;;;;;;7.32;6.63;;;;;;;16.57;83.00;96214.72;4993647;28;20206;-85
2023/09/27 00:04:05;;;;;;;7.93;7.13;;;;;;;16.57;82.95;96219.13;5009643;28;20831;-85
2023/09/27 00:06:31;;;;;;;7.65;7.05;;;;;;;16.47;83.62;96226.50;5009500;28;20198;-85
2023/09/27 00:08:59;;;;;;;7.43;6.82;;;;;;;16.47;83.85;96226.50;5009314;28;20202;-84
2023/09/27 00:11:26;;;;;;;7.50;6.80;;;;;;;16.41;84.49;96242.88;5009895;28;20199;-85
2023/09/27 00:13:56;;;;;;;8.13;7.32;;;;;;;16.36;84.85;96246.06;5004183;28;20580;-85
2023/09/27 00:16:29;;;;;;;7.15;6.55;;;;;;;16.35;84.98;96249.69;5007622;28;20215;-87
2023/09/27 00:18:57;;;;;;;7.15;6.55;;;;;;;16.34;85.25;96249.88;5010565;28;20258;-87
2023/09/27 00:21:24;;;;;;;7.15;6.22;;;;;;;16.40;84.77;96236.88;5013562;28;20218;-87
2023/09/27 00:23:50;;;;;;;7.20;6.50;;;;;;;16.44;84.64;96235.50;5004532;28;20227;-87
2023/09/27 00:26:21;;;;;;;7.75;6.70;;;;;;;16.47;84.30;96223.91;4990838;28;20203;-85
2023/09/27 00:28:47;;;;;;;19.38;16.42;;;;;;;16.44;84.50;96225.09;4990398;28;20210;-85
2023/09/27 00:31:15;;;;;;;32.30;28.90;;;;;;;16.39;85.27;96244.88;4990279;28;20668;-85
2023/09/27 00:33:46;;;;;;;14.45;13.00;;;;;;;16.41;85.07;96235.09;4991004;28;20242;-85
2023/09/27 00:36:13;;;;;;;8.15;7.45;;;;;;;16.38;85.04;96236.28;5009546;28;20261;-85
2023/09/27 00:38:39;;;;;;;7.57;6.40;;;;;;;16.40;84.61;96233.50;5009937;28;20725;-86
2023/09/27 00:41:06;;;;;;;7.38;6.68;;;;;;;16.38;85.10;96238.06;5009280;28;20289;-85
2023/09/27 00:43:34;;;;;;;8.23;6.18;;;;;;;16.38;85.00;96230.28;5007068;28;20219;-85
2023/09/27 00:46:03;;;;;;;6.15;5.63;;;;;;;16.47;84.77;96236.91;4989649;28;20203;-85
2023/09/27 00:48:34;;;;;;;6.32;5.82;;;;;;;16.52;85.07;96237.13;4993055;28;20210;-85
2023/09/27 00:51:09;;;;;;;8.80;6.35;;;;;;;16.55;84.42;96227.13;4999290;28;20206;-85
2023/09/27 00:53:41;;;;;;;6.70;5.90;;;;;;;16.54;83.40;96203.94;5006341;28;20218;-85
2023/09/27 00:56:12;;;;;;;6.40;5.80;;;;;;;16.48;83.52;96205.53;5009255;28;20214;-85
2023/09/27 00:58:48;;;;;;;6.00;5.50;;;;;;;16.53;83.82;96213.53;5009147;28;20579;-85
2023/09/27 01:01:17;;;;;;;6.35;5.85;;;;;;;16.55;84.14;96218.50;5008979;28;20202;-85
2023/09/27 01:03:54;;;;;;;8.63;6.10;;;;;;;16.45;83.49;96190.31;5008710;28;20587;-85
2023/09/27 01:06:27;;;;;;;6.88;6.28;;;;;;;16.35;83.83;96202.09;5007039;28;20209;-84
2023/09/27 01:09:03;;;;;;;6.90;5.95;;;;;;;16.26;84.72;96213.66;5003741;28;20607;-85
2023/09/27 01:11:36;;;;;;;7.10;6.45;;;;;;;16.31;84.43;96209.50;4990376;28;20234;-85
2023/09/27 01:14:10;;;;;;;6.50;5.90;;;;;;;16.27;84.60;96215.28;4989138;28;20254;-86
2023/09/27 01:16:42;;;;;;;5.70;5.18;;;;;;;16.29;84.57;96215.88;5000321;28;20218;-86
2023/09/27 01:19:16;;;;;;;5.95;5.25;;;;;;;16.34;84.27;96208.31;5029029;28;20190;-85
2023/09/27 01:21:49;;;;;;;6.10;5.60;;;;;;;16.36;83.93;96208.88;5028830;28;20741;-84
2023/09/27 01:24:26;;;;;;;5.97;5.47;;;;;;;16.37;83.82;96189.69;4999842;28;20302;-85
2023/09/27 01:27:00;;;;;;;6.30;5.70;;;;;;;16.29;83.72;96189.91;5009556;28;20195;-85
2023/09/27 01:29:29;;;;;;;6.10;5.60;;;;;;;16.22;83.91;96193.28;5009241;28;20217;-85
2023/09/27 01:32:05;;;;;;;6.07;5.57;;;;;;;16.14;84.12;96190.06;5008889;28;20199;-85
2023/09/27 01:34:40;;;;;;;6.22;5.72;;;;;;;16.17;84.11;96189.66;4995897;28;20219;-85
2023/09/27 01:37:10;;;;;;;6.10;5.53;;;;;;;16.22;84.07;96188.06;4989270;28;20299;-85
2023/09/27 01:39:45;;;;;;;6.18;5.60;;;;;;;16.21;84.05;96191.66;5001680;28;20203;-85
2023/09/27 01:42:17;;;;;;;6.40;5.65;;;;;;;16.28;83.45;96176.09;5008484;28;20298;-85
2023/09/27 01:44:50;;;;;;;6.40;5.28;;;;;;;16.20;83.40;96174.47;4995135;28;20231;-85
2023/09/27 01:47:24;;;;;;;6.22;5.72;;;;;;;16.17;83.24;96174.06;4997387;28;20199;-85
2023/09/27 01:49:55;;;;;;;8.05;5.78;;;;;;;16.13;83.49;96171.06;4989644;28;20204;-85
2023/09/27 01:52:30;;;;;;;6.05;5.55;;;;;;;16.01;83.71;96172.63;4989053;28;20191;-85
2023/09/27 01:55:05;;;;;;;5.97;5.57;;;;;;;15.94;83.67;96165.81;5002311;28;20222;-85
2023/09/27 01:57:35;;;;;;;6.32;5.82;;;;;;;15.95;83.83;96165.63;5003535;28;20708;-85
2023/09/27 02:00:11;;;;;;;7.10;5.78;;;;;;;15.91;84.14;96179.19;5012223;28;20285;-85
2023/09/27 02:02:45;;;;;;;6.25;5.50;;;;;;;15.83;84.62;96183.56;5012338;28;20269;-85
2023/09/27 02:05:14;;;;;;;6.70;5.80;;;;;;;15.85;84.75;96188.56;5011377;28;20222;-85
2023/09/27 02:07:49;;;;;;;6.00;5.13;;;;;;;15.87;84.55;96187.38;5011574;28;20203;-84
2023/09/27 02:10:20;;;;;;;5.57;5.10;;;;;;;15.88;84.68;96182.97;5010650;28;20202;-86
2023/09/27 02:12:56;;;;;;;6.22;5.72;;;;;;;15.83;84.83;96186.16;5009663;28;20613;-85
2023/09/27 02:15:22;;;;;;;6.43;5.53;;;;;;;15.78;84.83;96195.50;5010303;28;20218;-86
2023/09/27 02:17:49;;;;;;;5.70;5.20;;;;;;;15.82;84.86;96191.53;5026791;28;20313;-85
2023/09/27 02:20:17;;;;;;;6.10;5.60;;;;;;;15.89;84.50;96176.78;5031519;28;20233;-85
2023/09/27 02:22:46;;;;;;;5.82;5.32;;;;;;;15.94;83.89;96171.81;5031348;28;20190;-85
2023/09/27 02:25:13;;;;;;;5.75;5.25;;;;;;;15.94;83.77;96164.03;5012585;28;20218;-85
2023/09/27 02:27:41;;;;;;;5.80;5.30;;;;;;;15.85;83.76;96168.59;5009805;28;20199;-85
2023/09/27 02:30:12;;;;;;;6.72;5.15;;;;;;;15.82;83.44;96176.75;5011433;28;20207;-85
2023/09/27 02:32:45;;;;;;;6.88;5.65;;;;;;;15.85;83.73;96180.78;4994427;28;20717;-85
2023/09/27 02:35:21;;;;;;;5.85;5.35;;;;;;;15.80;84.66;96198.72;4992039;28;20228;-85
2023/09/27 02:37:57;;;;;;;6.20;5.35;;;;;;;15.87;84.39;96194.38;4991829;28;20283;-85
2023/09/27 02:40:27;;;;;;;6.63;5.38;;;;;;;15.85;84.64;96180.78;4992480;28;20199;-85
2023/09/27 02:43:04;;;;;;;5.38;4.97;;;;;;;15.85;84.19;96185.97;4999331;28;20203;-85
2023/09/27 02:45:35;;;;;;;6.35;5.75;;;;;;;15.75;83.58;96167.38;5006062;28;20600;-85
2023/09/27 02:48:09;;;;;;;5.80;5.22;;;;;;;15.75;83.70;96170.75;4991950;28;20798;-86
2023/09/27 02:50:48;;;;;;;5.63;5.03;;;;;;;15.82;83.81;96174.16;4991692;28;20246;-85
2023/09/27 02:53:17;;;;;;;5.50;4.95;;;;;;;15.80;83.85;96173.56;4995969;28;20213;-85
2023/09/27 02:55:48;;;;;;;5.80;5.30;;;;;;;15.73;84.06;96179.72;5010845;28;20210;-85
2023/09/27 02:58:25;;;;;;;5.60;5.10;;;;;;;15.64;84.69;96181.69;5010622;28;20227;-85
2023/09/27 03:00:57;;;;;;;5.53;5.05;;;;;;;15.69;84.33;96183.72;5009258;28;20210;-85
2023/09/27 03:03:30;;;;;;;5.50;5.10;;;;;;;15.64;84.35;96181.69;5010677;28;20215;-85
2023/09/27 03:06:12;;;;;;;5.68;4.65;;;;;;;15.59;84.77;96189.25;5011006;28;20206;-85
2023/09/27 03:08:39;;;;;;;5.68;5.18;;;;;;;15.61;84.82;96189.03;5009466;28;20203;-85
2023/09/27 03:11:12;;;;;;;5.85;4.35;;;;;;;15.64;84.67;96199.06;5010975;28;20791;-85
2023/09/27 03:13:44;;;;;;;5.88;4.80;;;;;;;15.51;85.14;96202.38;5010240;28;20225;-85
2023/09/27 03:16:29;;;;;;;5.35;4.65;;;;;;;15.49;85.65;96219.91;5010635;28;20215;-85
2023/09/27 03:18:55;;;;;;;4.80;4.40;;;;;;;15.46;86.27;96228.88;5013358;28;20222;-85
2023/09/27 03:21:26;;;;;;;5.22;4.80;;;;;;;15.51;85.52;96233.50;5010695;28;20199;-85
2023/09/27 03:23:58;;;;;;;5.40;4.43;;;;;;;15.61;84.81;96213.22;5000684;28;20220;-85
2023/09/27 03:26:34;;;;;;;5.03;4.57;;;;;;;15.59;83.72;96196.25;4990913;28;20199;-85
2023/09/27 03:29:05;;;;;;;4.68;4.28;;;;;;;15.58;83.74;96199.84;4991363;28;20203;-86
2023/09/27 03:31:38;;;;;;;5.25;4.40;;;;;;;15.61;83.68;96196.84;4995674;28;20223;-85
2023/09/27 03:34:12;;;;;;;5.00;4.60;;;;;;;15.61;83.27;96197.63;5003502;28;20223;-85
2023/09/27 03:36:45;;;;;;;4.40;4.00;;;;;;;15.56;83.03;96181.88;4990531;28;20198;-85
2023/09/27 03:39:15;;;;;;;4.80;4.40;;;;;;;15.47;83.25;96183.78;4998508;28;20266;-85
2023/09/27 03:41:47;;;;;;;4.75;4.25;;;;;;;15.35;83.59;96207.88;5005719;28;20226;-85
2023/09/27 03:44:24;;;;;;;6.13;4.68;;;;;;;15.35;84.13;96218.25;4990104;28;20226;-86
2023/09/27 03:46:53;;;;;;;5.15;4.72;;;;;;;15.31;84.29;96217.00;4990623;28;20207;-85
2023/09/27 03:49:19;;;;;;;5.03;4.53;;;;;;;15.27;84.58;96223.56;5008212;28;20712;-85
2023/09/27 03:51:46;;;;;;;4.80;4.40;;;;;;;15.32;84.61;96218.63;5010189;28;20201;-87
2023/09/27 03:54:12;;;;;;;4.85;4.45;;;;;;;15.33;84.92;96228.00;4994516;28;20604;-85
2023/09/27 03:56:38;;;;;;;4.95;4.10;;;;;;;15.27;85.91;96257.28;4990455;28;20199;-85
2023/09/27 03:59:05;;;;;;;4.95;4.22;;;;;;;15.24;86.08;96257.66;4990434;28;20219;-85
2023/09/27 04:01:38;;;;;;;4.95;4.40;;;;;;;15.19;86.24;96264.25;4990523;28;20196;-85
2023/09/27 04:04:10;;;;;;;4.75;4.38;;;;;;;15.21;85.94;96251.88;4996408;28;20223;-85
2023/09/27 04:06:46;;;;;;;4.95;4.55;;;;;;;15.02;87.33;96278.44;5009927;28;20217;-85
2023/09/27 04:09:18;;;;;;;4.97;4.57;;;;;;;15.03;87.29;96266.28;5006034;28;20204;-85
2023/09/27 04:11:49;;;;;;;5.18;4.53;;;;;;;15.04;87.31;96273.06;5010582;28;20269;-86
2023/09/27 04:14:17;;;;;;;4.95;4.30;;;;;;;15.02;87.67;96281.03;5003265;28;20223;-85
2023/09/27 04:16:44;;;;;;;5.20;4.68;;;;;;;15.02;88.03;96294.00;5015371;28;20954;-85
2023/09/27 04:19:11;;;;;;;4.32;3.97;;;;;;;15.11;87.71;96285.13;5029117;28;20226;-85
2023/09/27 04:21:37;;;;;;;5.32;4.80;;;;;;;15.18;87.40;96290.38;5008094;28;20578;-85
2023/09/27 04:24:08;;;;;;;6.97;4.70;;;;;;;15.18;86.93;96278.22;5008925;28;20250;-86
2023/09/27 04:26:40;;;;;;;5.18;4.40;;;;;;;15.19;87.08;96281.59;5009344;28;20209;-85
2023/09/27 04:29:15;;;;;;;5.18;4.68;;;;;;;15.06;87.96;96302.22;5009181;28;20206;-86
2023/09/27 04:31:49;;;;;;;5.07;4.57;;;;;;;15.03;88.06;96305.19;5009426;28;20206;-87
2023/09/27 04:34:21;;;;;;;5.28;4.78;;;;;;;15.06;88.20;96312.59;5002337;28;20234;-85
2023/09/27 04:36:55;;;;;;;4.55;4.25;;;;;;;15.07;88.69;96327.19;5006883;28;20207;-86
2023/09/27 04:39:27;;;;;;;5.05;4.20;;;;;;;15.02;88.77;96329.50;5004524;28;20292;-87
2023/09/27 04:41:58;;;;;;;4.70;4.20;;;;;;;15.01;88.18;96314.97;4989256;28;20231;-87
2023/09/27 04:44:34;;;;;;;5.10;4.70;;;;;;;15.05;87.53;96303.22;5008316;28;20595;-85
2023/09/27 04:47:06;;;;;;;4.47;3.97;;;;;;;15.09;87.29;96302.66;5009440;28;20203;-85
2023/09/27 04:49:37;;;;;;;4.43;4.13;;;;;;;15.13;87.91;96308.28;5006895;28;20210;-85
2023/09/27 04:52:06;;;;;;;4.97;4.47;;;;;;;15.23;88.93;96326.91;5007777;28;20202;-83
2023/09/27 04:54:33;;;;;;;4.28;3.88;;;;;;;15.41;90.86;96357.59;5010053;28;20355;-84
2023/09/27 04:56:59;;;;;;;4.28;3.88;;;;;;;15.65;89.45;96344.25;5010419;28;20580;-84
2023/09/27 04:59:26;;;;;;;4.20;3.90;;;;;;;15.88;88.01;96331.00;5010795;28;20223;-85
2023/09/27 05:01:52;;;;;;;5.68;4.15;;;;;;;16.04;87.00;96311.72;5009724;28;20211;-83
2023/09/27 05:04:20;;;;;;;4.70;4.18;;;;;;;16.20;86.00;96294.00;5010050;28;20226;-83
2023/09/27 05:06:47;;;;;;;7.22;4.03;;;;;;;16.31;84.75;96269.28;5009420;28;20206;-84
2023/09/27 05:09:13;;;;;;;4.10;3.80;;;;;;;16.40;84.00;96262.06;5007428;28;20195;-84
2023/09/27 05:11:40;;;;;;;3.92;3.58;;;;;;;16.43;82.80;96238.28;5010564;28;20217;-85
2023/09/27 05:14:06;;;;;;;5.07;3.20;;;;;;;16.48;83.64;96254.91;5009906;28;20222;-84
2023/09/27 05:16:36;;;;;;;3.60;3.30;;;;;;;16.59;83.27;96250.94;5015285;28;20209;-84
2023/09/27 05:19:03;;;;;;;3.60;3.30;;;;;;;16.71;82.21;96231.19;5032561;28;20225;-83
2023/09/27 05:21:33;;;;;;;3.60;3.30;;;;;;;16.80;81.48;96223.97;5035738;28;20205;-85
2023/09/27 05:24:00;;;;;;;3.75;3.45;;;;;;;16.84;80.45;96205.19;5031231;28;20226;-85
2023/09/27 05:26:27;;;;;;;3.40;3.17;;;;;;;16.90;80.15;96193.97;5011366;28;20695;-85
2023/09/27 05:28:53;;;;;;;5.55;3.38;;;;;;;16.98;79.83;96192.16;5010625;28;20210;-85
2023/09/27 05:31:20;;;;;;;3.88;3.38;;;;;;;17.02;78.88;96170.75;5003544;28;20294;-84
2023/09/27 05:33:46;;;;;;;3.65;3.15;;;;;;;17.03;78.68;96171.56;4994323;28;20226;-84
2023/09/27 05:36:13;;;;;;;15.90;14.05;;;;;;;16.98;78.39;96169.53;4994937;28;20200;-85
2023/09/27 05:38:41;;;;;;;9.20;6.25;;;;;;;16.74;79.61;96196.97;4994949;28;20234;-85
2023/09/27 05:41:07;;;;;;;11.50;8.00;;;;;;;16.71;80.77;96217.38;5003710;28;20209;-85
2023/09/27 05:43:33;;;;;;;9.95;4.85;;;;;;;16.76;80.91;96225.38;5012931;28;20767;-85
2023/09/27 05:46:00;;;;;;;4.15;3.75;;;;;;;16.88;80.42;96216.00;5012519;28;20207;-86
2023/09/27 05:48:26;;;;;;;4.07;3.78;;;;;;;17.01;79.55;96196.97;5013195;28;20203;-86
2023/09/27 05:50:53;;;;;;;4.47;3.83;;;;;;;17.00;78.54;96170.16;5012875;28;20215;-85
2023/09/27 05:53:20;;;;;;;4.07;3.65;;;;;;;17.01;78.35;96160.53;5012887;28;20223;-85
2023/09/27 05:55:48;;;;;;;4.13;3.55;;;;;;;16.95;79.01;96180.34;5013302;28;20226;-85
2023/09/27 05:58:14;;;;;;;3.95;3.30;;;;;;;16.92;78.79;96184.19;5011514;28;20284;-84
2023/09/27 06:00:48;;;;;;;4.63;3.38;;;;;;;16.86;78.94;96184.16;5011869;28;20203;-86
2023/09/27 06:03:14;;;;;;;4.53;3.42;;;;;;;16.70;79.74;96205.38;5012413;28;20203;-86
2023/09/27 06:05:41;;;;;;;4.18;3.83;;;;;;;16.53;81.12;96225.72;4998313;28;20196;-86
2023/09/27 06:08:07;;;;;;;3.78;3.47;;;;;;;16.43;82.42;96254.69;4991798;28;20278;-85
2023/09/27 06:10:34;;;;;;;7.63;3.25;;;;;;;16.35;82.98;96264.50;4992479;28;20239;-86
2023/09/27 06:13:02;;;;;;;4.18;3.67;;;;;;;16.34;83.85;96275.88;4997418;28;20286;-85
2023/09/27 06:15:28;;;;;;;12.00;10.88;;;;;;;16.34;83.96;96287.06;5010834;28;20214;-85
2023/09/27 06:17:55;;;;;;;7.65;6.95;;;;;;;16.43;83.71;96283.28;5027804;28;20663;-85
2023/09/27 06:20:22;;;;;;;13.52;12.15;;;;;;;16.50;83.75;96294.53;5033406;28;20213;-85
2023/09/27 06:22:49;;;;;;;8.30;6.47;;;;;;;16.63;83.56;96291.16;5031036;28;20292;-86
2023/09/27 06:25:16;;;;;;;4.90;4.40;;;;;;;16.88;82.65;96275.81;5031205;28;20621;-85
2023/09/27 06:27:43;;;;;;;4.18;3.78;;;;;;;17.08;81.77;96271.44;5004292;28;20305;-85
2023/09/27 06:30:18;;;;;;;4.97;3.75;;;;;;;17.27;80.67;96254.22;5009098;28;20821;-85
2023/09/27 06:32:45;;;;;;;7.47;4.40;;;;;;;17.26;81.41;96263.03;5011542;28;20238;-85
2023/09/27 06:35:14;;;;;;;6.15;5.55;;;;;;;17.27;81.70;96265.41;4999380;28;20253;-85
2023/09/27 06:37:40;;;;;;;6.82;6.13;;;;;;;17.37;81.77;96264.19;4991644;28;20211;-85
2023/09/27 06:40:08;;;;;;;6.35;5.72;;;;;;;17.56;81.36;96250.34;4991769;28;20234;-84
2023/09/27 06:42:35;;;;;;;5.78;5.18;;;;;;;17.82;79.94;96228.69;4990922;28;20191;-86
2023/09/27 06:45:01;;;;;;;4.82;4.40;;;;;;;18.00;79.16;96220.19;4995022;28;20226;-86
2023/09/27 06:47:31;;;;;;;4.35;4.00;;;;;;;18.28;78.40;96221.44;5011396;28;20226;-86
2023/09/27 06:49:57;;;;;;;4.82;4.32;;;;;;;18.47;77.32;96201.47;5010743;28;20202;-85
2023/09/27 06:52:24;;;;;;;8.80;8.00;;;;;;;18.61;76.67;96189.19;5010521;28;20214;-84
2023/09/27 06:54:52;;;;;;;7.32;6.72;;;;;;;18.67;76.67;96188.34;5010728;28;20230;-86
2023/09/27 06:57:21;;;;;;;10.95;6.97;;;;;;;18.93;75.28;96148.19;5011172;28;20199;-86
2023/09/27 06:59:50;;;;;;;8.00;5.28;;;;;;;19.14;74.27;96126.91;5010759;28;20655;-86
2023/09/27 07:02:17;;;;;;;5.80;5.30;;;;;;;19.34;72.78;96097.97;5009180;28;20203;-85
2023/09/27 07:04:46;;;;;;;6.32;5.07;;;;;;;19.53;72.54;96099.59;5004256;28;20227;-85
2023/09/27 07:07:13;;;;;;;5.38;4.60;;;;;;;19.69;72.00;96090.34;4990401;28;20731;-85
2023/09/27 07:09:40;;;;;;;5.82;4.15;;;;;;;19.89;71.42;96077.00;4990953;28;20290;-85
2023/09/27 07:12:07;;;;;;;4.70;3.92;;;;;;;19.99;70.76;96057.16;5002452;28;20257;-86
2023/09/27 07:14:36;;;;;;;5.07;4.57;;;;;;;20.14;69.81;96037.63;5010223;28;20219;-86
2023/09/27 07:17:02;;;;;;;5.10;4.22;;;;;;;20.32;69.54;96024.47;5014949;28;20225;-86
2023/09/27 07:19:31;;;;;;;6.22;4.20;;;;;;;20.46;69.04;96002.31;5010293;28;20230;-85
2023/09/27 07:22:03;;;;;;;6.93;4.53;;;;;;;20.64;68.25;95994.34;5010690;28;20293;-85
2023/09/27 07:24:31;;;;;;;5.25;4.28;;;;;;;20.77;68.07;95982.06;5007403;28;20221;-85
2023/09/27 07:26:57;;;;;;;5.32;4.38;;;;;;;20.91;67.92;95989.41;5010215;28;20203;-86
2023/09/27 07:29:24;;;;;;;5.57;4.15;;;;;;;21.08;67.66;95986.88;5010353;28;20548;-86
2023/09/27 07:31:50;;;;;;;6.25;4.03;;;;;;;21.25;67.66;95986.97;5010422;28;20207;-85
2023/09/27 07:34:17;;;;;;;7.95;4.38;;;;;;;21.45;66.80;95970.81;5008362;28;20231;-86
2023/09/27 07:36:44;;;;;;;4.95;4.55;;;;;;;21.56;65.56;95918.34;5009897;28;20774;-86
2023/09/27 07:39:13;;;;;;;5.63;5.15;;;;;;;21.57;65.15;95906.03;5010382;28;20226;-85
2023/09/27 07:41:44;;;;;;;5.30;4.90;;;;;;;21.73;64.78;95889.53;5010024;28;20302;-85
2023/09/27 07:44:12;;;;;;;4.70;4.32;;;;;;;21.95;64.89;95887.75;4993084;28;20220;-85
2023/09/27 07:46:39;;;;;;;5.20;4.70;;;;;;;22.16;63.55;95844.28;4990437;28;20200;-86
2023/09/27 07:49:08;;;;;;;6.05;5.53;;;;;;;22.29;63.28;95824.78;4990177;28;20211;-86
2023/09/27 07:51:34;;;;;;;29.05;26.15;;;;;;;22.40;62.46;95800.25;5009530;28;20235;-87
2023/09/27 07:54:04;;;;;;;7.80;7.10;;;;;;;22.46;62.26;95801.91;5009833;28;20242;-87
2023/09/27 07:56:39;;;;;;;8.30;5.55;;;;;;;22.69;62.41;95808.72;5010170;28;20198;-85
2023/09/27 07:59:12;;;;;;;5.93;5.35;;;;;;;22.88;61.76;95801.31;5010013;28;20238;-85
2023/09/27 08:01:39;;;;;;;6.55;5.07;;;;;;;23.03;61.28;95783.84;5009769;28;20203;-86
2023/09/27 08:04:12;;;;;;;5.47;4.97;;;;;;;23.18;61.36;95798.16;5008825;28;20254;-87
2023/09/27 08:06:39;;;;;;;6.00;5.50;;;;;;;23.36;60.49;95764.41;5000895;28;20268;-86
2023/09/27 08:09:06;;;;;;;4.82;4.43;;;;;;;23.31;59.57;95721.53;5009609;28;20206;-86
2023/09/27 08:11:33;;;;;;;5.90;5.40;;;;;;;23.53;59.60;95724.84;5009700;28;20273;-86
2023/09/27 08:14:01;;;;;;;6.10;4.85;;;;;;;23.65;59.18;95722.84;5009420;28;20837;-86
2023/09/27 08:16:33;;;;;;;6.28;5.38;;;;;;;23.69;59.25;95715.19;5013191;28;20310;-86
2023/09/27 08:18:59;;;;;;;6.03;5.53;;;;;;;23.64;58.86;95689.69;5016424;28;20215;-86
2023/09/27 08:21:29;;;;;;;5.60;5.05;;;;;;;23.89;59.17;95706.63;4998437;28;20195;-86
2023/09/27 08:23:55;;;;;;;5.18;4.68;;;;;;;24.05;59.06;95714.31;5008738;28;20226;-86
2023/09/27 08:26:21;;;;;;;6.07;5.47;;;;;;;24.18;57.81;95657.78;5009167;28;20199;-86
2023/09/27 08:28:48;;;;;;;5.28;4.88;;;;;;;24.41;58.05;95677.59;5009290;28;20210;-86
2023/09/27 08:31:17;;;;;;;5.38;4.90;;;;;;;24.52;57.92;95662.59;5009234;28;20207;-85
2023/09/27 08:33:44;;;;;;;5.43;5.03;;;;;;;24.66;56.72;95613.63;5010139;28;20226;-85
2023/09/27 08:36:17;;;;;;;5.85;4.97;;;;;;;24.76;56.92;95608.38;5028999;28;20678;-86
2023/09/27 08:38:44;;;;;;;7.68;7.07;;;;;;;24.82;56.15;95578.34;5016161;28;20206;-86
2023/09/27 08:41:13;;;;;;;8.85;7.95;;;;;;;24.84;56.43;95586.75;5009188;28;20676;-86
2023/09/27 08:43:40;;;;;;;4.82;4.43;;;;;;;24.96;55.84;95589.16;5008933;28;20222;-86
2023/09/27 08:46:08;;;;;;;4.80;4.50;;;;;;;25.10;56.15;95590.94;5009332;28;20298;-85
2023/09/27 08:48:38;;;;;;;5.75;4.70;;;;;;;25.20;55.79;95579.59;5009243;28;20225;-85
2023/09/27 08:51:06;;;;;;;5.57;5.10;;;;;;;25.28;55.23;95536.84;5008688;28;20289;-86
2023/09/27 08:53:34;;;;;;;8.73;4.88;;;;;;;25.40;55.73;95568.97;5008853;28;20219;-86
2023/09/27 08:56:04;;;;;;;4.70;4.30;;;;;;;25.48;55.24;95535.97;5010476;28;20203;-86
2023/09/27 08:58:34;;;;;;;5.32;4.93;;;;;;;25.63;55.31;95527.22;5008675;28;20211;-87
2023/09/27 09:01:04;;;;;;;7.45;5.60;;;;;;;25.70;54.07;95465.22;5008746;28;20230;-87
2023/09/27 09:03:32;;;;;;;5.97;5.50;;;;;;;25.41;54.40;95465.09;5008802;28;20214;-86
2023/09/27 09:06:00;;;;;;;5.65;5.13;;;;;;;25.39;54.76;95477.00;5007976;28;20199;-87
2023/09/27 09:08:26;;;;;;;5.72;5.18;;;;;;;25.42;55.17;95485.13;5008399;28;20563;-86
2023/09/27 09:10:54;;;;;;;8.98;8.07;;;;;;;25.47;54.96;95468.50;5007297;28;20345;-87
2023/09/27 09:13:22;;;;;;;9.82;6.32;;;;;;;25.33;54.51;95463.03;5008558;28;20210;-86
2023/09/27 09:15:50;;;;;;;7.00;6.40;;;;;;;25.36;54.49;95445.91;4999761;28;21657;-86
2023/09/27 09:18:28;;;;;;;6.53;5.80;;;;;;;25.29;55.53;95492.84;5013173;28;20738;-87
2023/09/27 09:20:59;;;;;;;6.80;5.43;;;;;;;25.30;55.47;95489.94;5008792;28;20261;-86
2023/09/27 09:23:35;;;;;;;6.97;6.38;;;;;;;25.23;54.95;95483.38;5001614;28;20229;-86
2023/09/27 09:26:02;;;;;;;6.45;5.80;;;;;;;25.29;55.28;95475.19;4990042;28;20199;-86
2023/09/27 09:28:29;;;;;;;6.85;6.18;;;;;;;25.25;54.42;95452.25;5006540;28;20238;-86
2023/09/27 09:30:56;;;;;;;6.53;5.90;;;;;;;25.23;54.88;95470.97;5008393;28;20568;-86
2023/09/27 09:33:24;;;;;;;6.53;5.90;;;;;;;25.33;55.59;95502.56;5008469;28;20238;-86
2023/09/27 09:35:52;;;;;;;7.30;6.60;;;;;;;24.95;55.21;95490.88;5008393;28;20206;-87
2023/09/27 09:38:25;;;;;;;7.93;7.03;;;;;;;24.90;55.47;95482.97;5008300;28;20293;-87
2023/09/27 09:40:54;;;;;;;7.15;6.55;;;;;;;24.93;55.69;95490.31;5008587;28;20218;-86
2023/09/27 09:43:36;;;;;;;6.88;6.38;;;;;;;24.94;55.67;95491.94;5006832;28;20202;-87
2023/09/27 09:46:06;;;;;;;7.55;6.88;;;;;;;24.92;55.52;95498.50;5008461;28;20214;-87
2023/09/27 09:48:33;;;;;;;7.80;7.03;;;;;;;24.71;55.85;95503.03;5009127;28;20227;-86
2023/09/27 09:51:04;;;;;;;7.53;6.43;;;;;;;24.71;57.18;95551.22;5008242;28;20206;-87
2023/09/27 09:53:31;;;;;;;8.38;7.47;;;;;;;24.51;56.29;95514.38;5008191;28;20219;-86
2023/09/27 09:56:01;;;;;;;7.93;6.10;;;;;;;24.61;57.07;95545.19;5008599;28;20674;-87
2023/09/27 09:58:40;;;;;;;8.02;6.38;;;;;;;24.74;56.15;95513.81;5007039;28;20214;-87
2023/09/27 10:01:10;;;;;;;8.57;7.65;;;;;;;24.77;55.61;95484.31;5005519;28;20223;-86
2023/09/27 10:03:47;;;;;;;9.77;8.65;;;;;;;24.60;55.10;95454.88;4993451;28;20219;-87
2023/09/27 10:06:18;;;;;;;10.55;7.90;;;;;;;24.62;55.22;95452.00;4999190;28;20260;-87
2023/09/27 10:08:47;;;;;;;8.35;7.50;;;;;;;24.54;56.33;95510.44;4992933;28;20200;-87
2023/09/27 10:11:17;;;;;;;8.73;7.93;;;;;;;24.56;57.13;95534.66;4989120;28;20287;-87
2023/09/27 10:13:45;;;;;;;8.85;8.02;;;;;;;24.67;56.30;95504.63;4996634;28;20233;-88
2023/09/27 10:16:12;;;;;;;8.35;7.53;;;;;;;24.45;56.67;95520.69;5004773;28;20222;-87
2023/09/27 10:18:39;;;;;;;8.63;7.85;;;;;;;24.40;56.14;95497.84;5012294;28;20202;-86
2023/09/27 10:21:08;;;;;;;8.65;7.07;;;;;;;24.32;57.09;95532.56;4992584;28;20235;-87
2023/09/27 10:23:36;;;;;;;8.95;8.02;;;;;;;24.31;56.47;95503.88;4991688;28;20228;-87
2023/09/27 10:26:18;;;;;;;13.73;12.48;;;;;;;24.38;56.87;95517.56;4992150;28;20253;-87
2023/09/27 10:29:13;;;;;;;12.70;11.50;;;;;;;24.25;57.10;95534.66;4992780;28;20203;-87
2023/09/27 10:32:20;;;;;;;9.68;8.10;;;;;;;24.14;58.18;95571.75;5002055;28;20290;-88
2023/09/27 10:34:54;;;;;;;8.20;7.40;;;;;;;24.31;58.03;95582.84;5054419;22;20218;-89
2023/09/27 10:37:58;;;;;;;9.63;8.57;;;;;;;24.08;57.67;95528.84;5019780;28;20210;-88
2023/09/27 10:40:25;;;;;;;9.32;7.88;;;;;;;23.82;58.92;95606.16;4971520;28;20230;-90
2023/09/27 10:42:53;;;;;;;8.57;7.88;;;;;;;23.96;58.65;95596.72;4974184;28;20211;-90
2023/09/27 10:45:19;;;;;;;9.13;8.23;;;;;;;23.91;59.12;95594.06;5095684;22;20234;-91
2023/09/27 10:48:08;;;;;;;10.90;8.77;;;;;;;23.90;58.37;95568.81;5031516;28;20206;-91
2023/09/27 10:50:35;;;;;;;10.30;9.40;;;;;;;23.89;58.30;95541.72;5037091;28;20212;-92
2023/09/27 10:53:02;;;;;;;8.90;8.02;;;;;;;24.08;58.61;95552.53;5051628;28;20206;-93
2023/09/27 10:55:42;;;;;;;9.80;8.32;;;;;;;24.16;57.97;95522.28;5035383;28;20203;-91
2023/09/27 10:58:12;;;;;;;22.23;18.42;;;;;;;24.19;57.53;95511.25;5029083;28;20230;-94
2023/09/27 11:01:07;;;;;;;10.70;9.68;;;;;;;24.07;57.30;95490.44;5029025;28;20282;-93
2023/09/27 11:03:34;;;;;;;9.07;7.30;;;;;;;24.24;57.85;95519.97;5021774;28;20206;-87
2023/09/27 11:06:09;;;;;;;9.40;7.65;;;;;;;24.33;58.19;95530.72;5013313;28;20198;-86
2023/09/27 11:08:35;;;;;;;9.30;8.45;;;;;;;24.30;57.86;95495.19;5006434;28;20238;-86
2023/09/27 11:11:02;;;;;;;7.75;7.13;;;;;;;24.30;58.56;95518.88;4998521;28;20207;-86
2023/09/27 11:13:30;;;;;;;7.25;6.57;;;;;;;24.45;58.30;95518.84;4991453;28;20318;-86
2023/09/27 11:16:08;;;;;;;8.45;7.75;;;;;;;24.41;55.81;95398.59;4998036;28;20196;-86
2023/09/27 11:18:43;;;;;;;8.23;7.45;;;;;;;24.18;56.29;95404.41;4991159;28;20219;-86
2023/09/27 11:21:09;;;;;;;7.05;6.45;;;;;;;24.19;55.86;95396.25;5010062;28;20226;-86
2023/09/27 11:23:56;;;;;;;7.45;6.68;;;;;;;24.14;56.58;95419.94;5010101;28;20230;-86
2023/09/27 11:26:24;;;;;;;7.93;7.13;;;;;;;24.11;56.86;95437.03;5011128;28;20203;-86
2023/09/27 11:29:02;;;;;;;9.57;8.68;;;;;;;24.04;57.01;95436.53;5009693;28;20826;-86
2023/09/27 11:31:33;;;;;;;7.72;6.85;;;;;;;24.06;57.20;95460.72;5010502;28;20207;-86
2023/09/27 11:34:14;;;;;;;7.60;6.80;;;;;;;24.21;58.02;95478.34;5009863;28;20246;-86
2023/09/27 11:36:42;;;;;;;8.23;7.53;;;;;;;24.12;57.50;95458.88;5008927;28;20295;-86
2023/09/27 11:39:14;;;;;;;9.90;7.00;;;;;;;24.23;56.88;95428.88;5009974;28;20215;-86
2023/09/27 11:41:46;;;;;;;7.32;6.53;;;;;;;24.14;56.95;95406.00;5010233;28;20225;-86
2023/09/27 11:44:23;;;;;;;8.48;7.78;;;;;;;24.09;57.16;95427.81;5009615;28;20226;-85
2023/09/27 11:46:58;;;;;;;7.80;6.97;;;;;;;24.27;57.48;95450.19;5010101;28;20203;-86